createdAt,value
2022-09-13T00:00:54.752Z,6.63
2022-09-13T00:03:33.637Z,7.30
2022-09-13T00:06:08.808Z,9.13
2022-09-13T00:08:37.194Z,9.73
2022-09-13T00:11:05.814Z,8.82
2022-09-13T00:13:35.503Z,11.25
2022-09-13T00:16:05.453Z,10.07
2022-09-13T00:18:34.819Z,8.40
2022-09-13T00:21:07.935Z,5.97
2022-09-13T00:23:36.351Z,6.88
2022-09-13T00:26:06.515Z,6.63
2022-09-13T00:28:36.166Z,7.07
2022-09-13T00:31:05.974Z,8.30
2022-09-13T00:33:34.518Z,9.10
2022-09-13T00:36:05.401Z,5.45
2022-09-13T00:38:33.983Z,7.60
2022-09-13T00:41:02.062Z,7.63
2022-09-13T00:43:45.521Z,7.45
2022-09-13T00:46:27.998Z,7.57
2022-09-13T00:48:58.841Z,9.57
2022-09-13T00:51:27.726Z,7.47
2022-09-13T00:53:57.354Z,9.15
2022-09-13T00:56:28.579Z,9.32
2022-09-13T00:59:01.472Z,8.57
2022-09-13T01:01:33.401Z,8.57
2022-09-13T01:04:02.620Z,8.73
2022-09-13T01:06:33.272Z,8.13
2022-09-13T01:09:04.274Z,7.18
2022-09-13T01:11:37.889Z,7.40
2022-09-13T01:14:08.407Z,10.93
2022-09-13T01:16:36.813Z,9.10
2022-09-13T01:19:05.373Z,9.45
2022-09-13T01:22:03.927Z,6.97
2022-09-13T01:25:09.964Z,6.18
2022-09-13T01:28:00.108Z,6.28
2022-09-13T01:30:32.445Z,5.85
2022-09-13T01:33:17.067Z,5.22
2022-09-13T01:35:56.475Z,5.00
2022-09-13T01:38:38.096Z,6.53
2022-09-13T01:41:13.713Z,7.45
2022-09-13T01:43:50.335Z,10.20
2022-09-13T01:46:25.015Z,7.97
2022-09-13T01:48:57.206Z,8.95
2022-09-13T01:51:30.477Z,6.80
2022-09-13T01:54:14.893Z,5.72
2022-09-13T01:56:50.081Z,7.55
2022-09-13T01:59:24.223Z,5.55
2022-09-13T02:01:58.097Z,6.75
2022-09-13T02:04:28.958Z,7.95
2022-09-13T02:07:02.422Z,5.95
2022-09-13T02:09:33.208Z,6.50
2022-09-13T02:12:06.543Z,5.18
2022-09-13T02:14:37.317Z,5.72
2022-09-13T02:17:08.850Z,5.20
2022-09-13T02:19:39.494Z,11.02
2022-09-13T02:22:09.476Z,14.48
2022-09-13T02:24:40.566Z,11.52
2022-09-13T02:27:11.718Z,14.70
2022-09-13T02:29:42.045Z,11.20
2022-09-13T02:32:15.852Z,13.38
2022-09-13T02:34:47.443Z,8.90
2022-09-13T02:37:16.089Z,8.75
2022-09-13T02:39:49.246Z,6.60
2022-09-13T02:42:20.059Z,7.10
2022-09-13T02:44:49.963Z,6.38
2022-09-13T02:47:30.437Z,6.20
2022-09-13T02:50:09.377Z,6.97
2022-09-13T02:52:46.373Z,6.90
2022-09-13T02:55:19.362Z,7.25
2022-09-13T02:57:55.541Z,6.38
2022-09-13T03:00:23.993Z,9.40
2022-09-13T03:02:54.763Z,8.90
2022-09-13T03:05:23.210Z,8.95
2022-09-13T03:07:51.965Z,7.07
2022-09-13T03:10:20.745Z,7.30
2022-09-13T03:13:02.567Z,7.85
2022-09-13T03:15:41.927Z,7.38
2022-09-13T03:18:20.615Z,14.13
2022-09-13T03:20:59.569Z,13.45
2022-09-13T03:23:42.285Z,11.65
2022-09-13T03:26:22.629Z,12.38
2022-09-13T03:28:56.737Z,12.57
2022-09-13T03:31:30.309Z,16.85
2022-09-13T03:34:03.673Z,17.10
2022-09-13T03:36:36.541Z,17.15
2022-09-13T03:39:14.833Z,17.80
2022-09-13T03:41:46.132Z,22.42
2022-09-13T03:44:15.840Z,18.52
2022-09-13T03:46:46.009Z,20.00
2022-09-13T03:49:17.113Z,19.13
2022-09-13T03:51:47.293Z,17.90
2022-09-13T03:54:19.501Z,20.40
2022-09-13T03:57:11.884Z,17.35
2022-09-13T03:59:43.457Z,16.95
2022-09-13T04:02:12.650Z,14.57
2022-09-13T04:04:43.389Z,13.45
2022-09-13T04:07:13.697Z,12.05
2022-09-13T04:09:42.026Z,13.07
2022-09-13T04:12:11.146Z,13.48
2022-09-13T04:14:39.482Z,13.88
2022-09-13T04:17:07.771Z,12.90
2022-09-13T04:19:36.001Z,13.35
2022-09-13T04:22:06.168Z,11.43
2022-09-13T04:24:34.411Z,12.25
2022-09-13T04:27:02.751Z,16.90
2022-09-13T04:29:32.015Z,17.17
2022-09-13T04:32:00.533Z,18.40
2022-09-13T04:34:28.807Z,14.63
2022-09-13T04:36:57.290Z,14.35
2022-09-13T04:39:26.867Z,12.68
2022-09-13T04:41:55.358Z,15.50
2022-09-13T04:44:24.694Z,13.23
2022-09-13T04:46:53.165Z,14.95
2022-09-13T04:49:22.105Z,19.55
2022-09-13T04:51:50.975Z,18.52
2022-09-13T04:54:19.076Z,18.98
2022-09-13T04:56:49.033Z,15.75
2022-09-13T04:59:17.681Z,17.77
2022-09-13T05:01:46.060Z,16.92
2022-09-13T05:04:14.687Z,16.33
2022-09-13T05:06:43.134Z,16.13
2022-09-13T05:09:14.211Z,16.30
2022-09-13T05:11:43.161Z,18.80
2022-09-13T05:14:13.356Z,22.60
2022-09-13T05:16:41.954Z,16.27
2022-09-13T05:19:10.724Z,15.90
2022-09-13T05:21:39.608Z,17.95
2022-09-13T05:24:07.836Z,17.05
2022-09-13T05:26:36.514Z,17.48
2022-09-13T05:29:05.456Z,16.75
2022-09-13T05:31:37.009Z,16.85
2022-09-13T05:34:07.749Z,14.80
2022-09-13T05:36:36.255Z,15.52
2022-09-13T05:39:29.523Z,14.30
2022-09-13T05:41:54.160Z,12.35
2022-09-13T05:44:23.110Z,13.80
2022-09-13T05:46:52.685Z,17.20
2022-09-13T05:49:21.060Z,13.43
2022-09-13T05:51:49.410Z,12.27
2022-09-13T05:54:17.839Z,13.00
2022-09-13T05:56:46.286Z,14.43
2022-09-13T05:59:15.279Z,11.40
2022-09-13T06:01:43.902Z,11.80
2022-09-13T06:04:14.654Z,10.80
2022-09-13T06:06:43.282Z,12.45
2022-09-13T06:09:12.080Z,13.45
2022-09-13T06:11:40.808Z,12.50
2022-09-13T06:14:08.937Z,11.90
2022-09-13T06:16:37.483Z,12.20
2022-09-13T06:19:05.725Z,10.13
2022-09-13T06:21:35.358Z,9.45
2022-09-13T06:24:04.053Z,9.98
2022-09-13T06:26:32.948Z,12.73
2022-09-13T06:29:01.197Z,9.18
2022-09-13T06:31:29.874Z,8.65
2022-09-13T06:34:00.028Z,9.30
2022-09-13T06:36:28.268Z,8.50
2022-09-13T06:39:00.708Z,9.15
2022-09-13T06:41:29.665Z,10.93
2022-09-13T06:43:58.987Z,8.80
2022-09-13T06:46:28.131Z,8.48
2022-09-13T06:48:57.885Z,7.80
2022-09-13T06:51:27.083Z,8.45
2022-09-13T06:53:56.799Z,9.20
2022-09-13T06:56:28.772Z,8.77
2022-09-13T06:58:58.278Z,8.80
2022-09-13T07:01:28.606Z,9.00
2022-09-13T07:04:00.222Z,8.05
2022-09-13T07:06:30.380Z,10.60
2022-09-13T07:08:59.781Z,9.10
2022-09-13T07:11:32.023Z,7.10
2022-09-13T07:14:01.941Z,7.38
2022-09-13T07:16:31.457Z,6.63
2022-09-13T07:19:00.811Z,9.52
2022-09-13T07:21:30.274Z,9.05
2022-09-13T07:23:58.428Z,8.38
2022-09-13T07:26:27.536Z,6.72
2022-09-13T07:28:59.922Z,7.85
2022-09-13T07:31:29.583Z,8.32
2022-09-13T07:33:59.761Z,7.07
2022-09-13T07:36:29.908Z,7.43
2022-09-13T07:38:59.233Z,8.05
2022-09-13T07:41:29.335Z,6.30
2022-09-13T07:44:00.769Z,8.40
2022-09-13T07:46:32.489Z,8.20
2022-09-13T07:49:02.104Z,8.95
2022-09-13T07:51:31.610Z,7.80
2022-09-13T07:54:01.373Z,7.85
2022-09-13T07:56:31.233Z,8.30
2022-09-13T07:59:02.258Z,7.35
2022-09-13T08:01:34.484Z,8.60
2022-09-13T08:04:05.163Z,7.88
2022-09-13T08:06:34.792Z,10.48
2022-09-13T08:09:03.395Z,7.65
2022-09-13T08:11:33.268Z,8.00
2022-09-13T08:14:03.575Z,6.20
2022-09-13T08:16:32.343Z,5.75
2022-09-13T08:19:03.266Z,6.78
2022-09-13T08:21:34.746Z,6.93
2022-09-13T08:24:03.778Z,5.05
2022-09-13T08:26:33.803Z,4.63
2022-09-13T08:29:05.132Z,7.68
2022-09-13T08:31:34.537Z,5.80
2022-09-13T08:34:03.104Z,5.72
2022-09-13T08:36:31.690Z,5.53
2022-09-13T08:39:02.045Z,6.47
2022-09-13T08:41:57.435Z,5.28
2022-09-13T08:44:30.242Z,8.00
2022-09-13T08:47:08.240Z,6.75
2022-09-13T08:49:41.563Z,7.00
2022-09-13T08:52:21.967Z,4.90
2022-09-13T08:57:24.073Z,5.45
2022-09-13T08:59:59.324Z,5.28
2022-09-13T09:02:58.032Z,5.50
2022-09-13T09:05:28.905Z,3.63
2022-09-13T09:08:00.915Z,6.47
2022-09-13T09:10:31.261Z,4.82
2022-09-13T09:13:02.651Z,2.95
2022-09-13T09:15:36.134Z,3.90
2022-09-13T09:18:07.308Z,3.20
2022-09-13T09:20:39.542Z,3.13
2022-09-13T09:23:19.073Z,2.30
2022-09-13T09:25:52.168Z,2.70
2022-09-13T09:28:21.022Z,3.83
2022-09-13T09:31:00.146Z,5.47
2022-09-13T09:33:43.053Z,3.93
2022-09-13T09:36:17.411Z,2.60
2022-09-13T09:38:46.232Z,4.57
2022-09-13T09:41:19.815Z,3.20
2022-09-13T09:43:52.922Z,4.25
2022-09-13T09:46:27.298Z,4.57
2022-09-13T09:48:58.326Z,3.28
2022-09-13T09:51:27.272Z,4.22
2022-09-13T09:54:02.133Z,3.20
2022-09-13T09:56:32.380Z,4.05
2022-09-13T09:59:00.687Z,2.30
2022-09-13T10:01:32.452Z,2.65
2022-09-13T10:04:08.783Z,2.88
2022-09-13T10:06:39.049Z,2.75
2022-09-13T10:11:45.353Z,2.40
2022-09-13T10:14:33.241Z,2.92
2022-09-13T10:17:11.444Z,2.42
2022-09-13T10:19:40.218Z,2.65
2022-09-13T10:22:13.097Z,3.30
2022-09-13T10:24:41.837Z,3.78
2022-09-13T10:27:23.451Z,3.15
2022-09-13T10:29:54.758Z,2.95
2022-09-13T10:32:25.773Z,3.50
2022-09-13T10:34:54.337Z,3.03
2022-09-13T10:37:24.228Z,4.38
2022-09-13T10:39:59.013Z,3.35
2022-09-13T10:42:28.177Z,4.90
2022-09-13T10:44:58.059Z,5.10
2022-09-13T10:47:31.268Z,3.65
2022-09-13T10:50:00.506Z,4.38
2022-09-13T10:52:34.717Z,2.45
2022-09-13T10:55:25.503Z,3.15
2022-09-13T10:57:55.136Z,3.08
2022-09-13T11:00:25.757Z,2.00
2022-09-13T11:03:04.557Z,3.53
2022-09-13T11:05:37.360Z,2.90
2022-09-13T11:08:14.539Z,3.35
2022-09-13T11:10:51.190Z,4.25
2022-09-13T11:13:26.401Z,3.00
2022-09-13T11:15:59.522Z,3.05
2022-09-13T11:18:56.412Z,3.25
2022-09-13T11:21:46.636Z,2.33
2022-09-13T11:24:24.914Z,3.35
2022-09-13T11:26:59.516Z,2.63
2022-09-13T11:29:37.020Z,2.15
2022-09-13T11:32:14.653Z,1.92
2022-09-13T11:34:51.379Z,1.73
2022-09-13T11:37:30.388Z,3.42
2022-09-13T11:40:09.291Z,1.50
2022-09-13T11:42:45.174Z,1.40
2022-09-13T11:45:24.354Z,2.05
2022-09-13T11:48:16.229Z,2.10
2022-09-13T11:50:53.032Z,1.70
2022-09-13T11:53:38.523Z,2.13
2022-09-13T11:56:08.677Z,2.35
2022-09-13T11:58:41.116Z,3.35
2022-09-13T12:01:12.569Z,3.45
2022-09-13T12:03:45.094Z,2.03
2022-09-13T12:06:20.508Z,5.00
2022-09-13T12:08:51.640Z,1.60
2022-09-13T12:11:23.294Z,1.95
2022-09-13T12:13:53.343Z,2.10
2022-09-13T12:16:25.174Z,2.60
2022-09-13T12:18:56.971Z,3.30
2022-09-13T12:21:29.290Z,4.63
2022-09-13T12:24:02.834Z,3.47
2022-09-13T12:26:33.439Z,2.13
2022-09-13T12:29:05.591Z,2.20
2022-09-13T12:31:34.075Z,2.03
2022-09-13T12:34:06.959Z,3.58
2022-09-13T12:36:46.904Z,3.03
2022-09-13T12:39:35.679Z,2.55
2022-09-13T12:42:27.508Z,1.70
2022-09-13T12:45:11.643Z,3.05
2022-09-13T12:48:12.597Z,2.67
2022-09-13T12:53:28.287Z,3.38
2022-09-13T12:56:04.999Z,1.98
2022-09-13T12:58:53.516Z,2.00
2022-09-13T13:01:23.042Z,3.97
2022-09-13T13:03:54.660Z,3.65
2022-09-13T13:06:28.574Z,4.53
2022-09-13T13:08:59.840Z,2.63
2022-09-13T13:11:31.485Z,2.35
2022-09-13T13:14:02.429Z,2.17
2022-09-13T13:19:00.512Z,2.33
2022-09-13T13:21:32.361Z,2.42
2022-09-13T13:24:37.980Z,3.05
2022-09-13T13:27:46.246Z,4.90
2022-09-13T13:30:40.535Z,2.92
2022-09-13T13:33:16.597Z,2.95
2022-09-13T13:35:45.057Z,2.58
2022-09-13T13:38:18.361Z,1.83
2022-09-13T13:40:50.672Z,2.13
2022-09-13T13:43:33.840Z,2.10
2022-09-13T13:46:28.372Z,2.60
2022-09-13T13:48:56.953Z,3.70
2022-09-13T13:51:27.779Z,4.18
2022-09-13T13:53:59.769Z,3.60
2022-09-13T13:56:35.219Z,3.03
2022-09-13T13:59:10.772Z,2.78
2022-09-13T14:01:45.088Z,2.47
2022-09-13T14:04:54.885Z,2.40
2022-09-13T14:07:34.855Z,2.83
2022-09-13T14:10:07.051Z,2.30
2022-09-13T14:12:47.440Z,2.92
2022-09-13T14:15:28.345Z,3.33
2022-09-13T14:18:32.294Z,4.13
2022-09-13T14:21:02.011Z,2.92
2022-09-13T14:23:31.285Z,3.42
2022-09-13T14:26:01.093Z,2.55
2022-09-13T14:28:29.794Z,2.70
2022-09-13T14:31:00.255Z,4.28
2022-09-13T14:33:32.187Z,4.13
2022-09-13T14:36:03.242Z,2.72
2022-09-13T14:38:35.457Z,4.78
2022-09-13T14:41:15.252Z,4.20
2022-09-13T14:43:44.072Z,2.80
2022-09-13T14:46:18.929Z,3.50
2022-09-13T14:48:51.802Z,2.40
2022-09-13T14:51:23.170Z,3.55
2022-09-13T14:56:29.081Z,2.25
2022-09-13T14:58:59.710Z,3.17
2022-09-13T15:01:31.670Z,2.70
2022-09-13T15:04:01.502Z,2.10
2022-09-13T15:06:31.617Z,3.72
2022-09-13T15:09:02.404Z,4.57
2022-09-13T15:11:34.055Z,2.70
2022-09-13T15:14:04.539Z,2.20
2022-09-13T15:16:34.453Z,2.88
2022-09-13T15:19:32.053Z,5.78
2022-09-13T15:22:12.801Z,2.95
2022-09-13T15:24:45.037Z,3.40
2022-09-13T15:27:26.343Z,3.63
2022-09-13T15:29:56.679Z,2.28
2022-09-13T15:32:34.830Z,3.15
2022-09-13T15:35:03.971Z,2.50
2022-09-13T15:37:35.930Z,2.42
2022-09-13T15:40:14.815Z,2.70
2022-09-13T15:42:47.250Z,3.15
2022-09-13T15:45:15.677Z,2.83
2022-09-13T15:47:48.012Z,2.55
2022-09-13T15:50:25.040Z,2.53
2022-09-13T15:52:53.253Z,3.97
2022-09-13T15:55:21.756Z,3.10
2022-09-13T15:57:50.191Z,4.22
2022-09-13T16:00:21.549Z,6.75
2022-09-13T16:02:51.862Z,2.55
2022-09-13T16:05:20.578Z,5.00
2022-09-13T16:07:49.072Z,3.42
2022-09-13T16:10:20.732Z,4.70
2022-09-13T16:12:49.202Z,3.10
2022-09-13T16:15:18.033Z,3.30
2022-09-13T16:17:46.500Z,4.13
2022-09-13T16:20:17.110Z,3.58
2022-09-13T16:22:45.382Z,3.92
2022-09-13T16:25:14.362Z,2.78
2022-09-13T16:27:43.105Z,3.67
2022-09-13T16:30:13.278Z,3.33
2022-09-13T16:32:42.488Z,2.50
2022-09-13T16:35:11.327Z,3.58
2022-09-13T16:37:41.222Z,2.17
2022-09-13T16:40:10.754Z,2.85
2022-09-13T16:42:39.491Z,3.55
2022-09-13T16:45:09.070Z,3.17
2022-09-13T16:47:37.810Z,3.13
2022-09-13T16:50:07.700Z,3.85
2022-09-13T16:52:36.366Z,3.20
2022-09-13T16:55:08.447Z,4.43
2022-09-13T16:57:37.419Z,3.97
2022-09-13T17:00:09.177Z,2.95
2022-09-13T17:02:37.877Z,2.58
2022-09-13T17:05:08.874Z,4.57
2022-09-13T17:07:38.098Z,3.78
2022-09-13T17:10:09.885Z,4.97
2022-09-13T17:12:38.300Z,2.50
2022-09-13T17:15:08.096Z,5.70
2022-09-13T17:17:36.764Z,3.22
2022-09-13T17:20:09.411Z,4.20
2022-09-13T17:22:38.355Z,3.97
2022-09-13T17:25:09.502Z,5.20
2022-09-13T17:27:38.756Z,3.65
2022-09-13T17:30:09.322Z,3.45
2022-09-13T17:32:37.820Z,5.70
2022-09-13T17:35:07.788Z,3.70
2022-09-13T17:37:36.900Z,5.70
2022-09-13T17:40:06.359Z,5.65
2022-09-13T17:42:36.591Z,3.78
2022-09-13T17:45:06.383Z,3.90
2022-09-13T17:47:35.359Z,5.10
2022-09-13T17:50:06.312Z,5.65
2022-09-13T17:52:35.426Z,3.53
2022-09-13T17:55:03.738Z,6.53
2022-09-13T17:57:32.278Z,5.18
2022-09-13T18:00:02.948Z,4.57
2022-09-13T18:02:31.344Z,5.97
2022-09-13T18:05:04.597Z,4.43
2022-09-13T18:07:34.218Z,6.57
2022-09-13T18:10:03.063Z,4.15
2022-09-13T18:12:32.168Z,5.50
2022-09-13T18:15:03.375Z,5.05
2022-09-13T18:17:31.879Z,6.20
2022-09-13T18:20:00.288Z,6.60
2022-09-13T18:22:28.770Z,6.53
2022-09-13T18:24:57.266Z,5.45
2022-09-13T18:27:26.479Z,6.80
2022-09-13T18:29:55.138Z,5.18
2022-09-13T18:32:25.250Z,4.97
2022-09-13T18:34:54.166Z,7.32
2022-09-13T18:37:23.643Z,4.95
2022-09-13T18:39:53.221Z,6.05
2022-09-13T18:42:22.675Z,9.13
2022-09-13T18:44:54.026Z,7.03
2022-09-13T18:47:23.011Z,5.53
2022-09-13T18:49:53.230Z,7.43
2022-09-13T18:52:22.490Z,7.60
2022-09-13T18:54:52.023Z,10.15
2022-09-13T18:57:21.701Z,7.22
2022-09-13T18:59:50.867Z,8.05
2022-09-13T19:02:21.206Z,7.70
2022-09-13T19:04:51.179Z,7.30
2022-09-13T19:07:23.571Z,5.93
2022-09-13T19:09:53.530Z,6.47
2022-09-13T19:12:23.823Z,6.95
2022-09-13T19:14:55.545Z,8.05
2022-09-13T19:17:24.662Z,8.63
2022-09-13T19:19:55.178Z,7.97
2022-09-13T19:22:27.786Z,8.07
2022-09-13T19:24:57.161Z,9.43
2022-09-13T19:27:29.724Z,9.18
2022-09-13T19:29:59.336Z,10.13
2022-09-13T19:32:28.206Z,7.88
2022-09-13T19:34:57.946Z,8.57
2022-09-13T19:37:29.023Z,8.27
2022-09-13T19:39:59.656Z,8.32
2022-09-13T19:42:29.983Z,11.35
2022-09-13T19:45:00.322Z,7.80
2022-09-13T19:48:13.077Z,9.73
2022-09-13T19:50:19.694Z,7.95
2022-09-13T19:52:50.389Z,9.07
2022-09-13T19:55:21.512Z,10.93
2022-09-13T20:00:20.551Z,5.40
2022-09-13T20:02:50.100Z,7.57
2022-09-13T20:05:19.836Z,6.50
2022-09-13T20:07:49.609Z,9.18
2022-09-13T20:10:18.242Z,7.30
2022-09-13T20:12:51.561Z,7.65
2022-09-13T20:15:24.586Z,6.68
2022-09-13T20:17:55.342Z,8.38
2022-09-13T20:20:26.561Z,7.10
2022-09-13T20:22:56.921Z,5.72
2022-09-13T20:25:25.514Z,7.22
2022-09-13T20:27:54.991Z,5.80
2022-09-13T20:30:24.631Z,6.72
2022-09-13T20:32:54.674Z,5.75
2022-09-13T20:35:23.634Z,6.40
2022-09-13T20:37:55.524Z,6.32
2022-09-13T20:40:26.728Z,6.55
2022-09-13T20:42:57.142Z,5.88
2022-09-13T20:45:26.358Z,6.07
2022-09-13T20:47:55.346Z,6.82
2022-09-13T20:50:24.773Z,5.85
2022-09-13T20:52:53.374Z,5.40
2022-09-13T20:55:21.534Z,6.40
2022-09-13T20:57:51.738Z,6.45
2022-09-13T21:00:19.956Z,5.72
2022-09-13T21:02:48.689Z,5.35
2022-09-13T21:05:18.820Z,5.80
2022-09-13T21:08:04.205Z,6.95
2022-09-13T21:10:32.673Z,6.57
2022-09-13T21:13:04.016Z,5.40
2022-09-13T21:15:32.242Z,7.60
2022-09-13T21:18:00.650Z,8.30
2022-09-13T21:20:29.258Z,5.05
2022-09-13T21:22:57.445Z,4.68
2022-09-13T21:25:25.920Z,4.68
2022-09-13T21:27:54.251Z,4.68
2022-09-13T21:30:24.040Z,4.95
2022-09-13T21:32:52.486Z,4.25
2022-09-13T21:35:20.812Z,5.80
2022-09-13T21:37:48.935Z,3.58
2022-09-13T21:40:17.653Z,3.95
2022-09-13T21:42:45.928Z,4.72
2022-09-13T21:45:14.258Z,4.55
2022-09-13T21:47:44.146Z,4.30
2022-09-13T21:50:12.465Z,4.82
2022-09-13T21:52:41.574Z,4.68
2022-09-13T21:55:10.438Z,4.40
2022-09-13T21:57:38.733Z,8.00
2022-09-13T22:00:09.314Z,3.53
2022-09-13T22:02:37.958Z,4.10
2022-09-13T22:05:08.291Z,4.28
2022-09-13T22:07:36.579Z,5.30
2022-09-13T22:10:05.367Z,5.38
2022-09-13T22:12:33.648Z,3.33
2022-09-13T22:15:01.811Z,3.00
2022-09-13T22:17:30.773Z,5.00
2022-09-13T22:19:58.866Z,4.90
2022-09-13T22:22:29.372Z,3.65
2022-09-13T22:24:57.665Z,5.93
2022-09-13T22:27:25.832Z,5.68
2022-09-13T22:29:53.912Z,3.80
2022-09-13T22:32:23.608Z,4.22
2022-09-13T22:34:53.438Z,4.00
2022-09-13T22:37:21.574Z,5.03
2022-09-13T22:39:51.463Z,4.63
2022-09-13T22:42:19.692Z,3.45
2022-09-13T22:44:48.292Z,4.85
2022-09-13T22:47:16.785Z,4.20
2022-09-13T22:49:45.010Z,5.63
2022-09-13T22:52:13.198Z,3.78
2022-09-13T22:54:41.910Z,4.35
2022-09-13T22:57:11.397Z,4.68
2022-09-13T22:59:39.648Z,4.25
2022-09-13T23:02:07.864Z,3.95
2022-09-13T23:04:36.009Z,5.07
2022-09-13T23:07:04.116Z,3.10
2022-09-13T23:09:32.421Z,4.32
2022-09-13T23:12:00.636Z,3.83
2022-09-13T23:14:30.042Z,3.95
2022-09-13T23:16:58.511Z,4.13
2022-09-13T23:19:28.242Z,4.40
2022-09-13T23:21:56.341Z,2.78
2022-09-13T23:24:25.222Z,2.72
2022-09-13T23:26:56.019Z,4.65
2022-09-13T23:29:24.435Z,6.13
2022-09-13T23:31:54.963Z,4.63
2022-09-13T23:34:23.646Z,3.45
2022-09-13T23:36:52.558Z,4.75
2022-09-13T23:39:21.837Z,3.35
2022-09-13T23:41:51.205Z,6.15
2022-09-13T23:44:19.396Z,3.92
2022-09-13T23:46:47.820Z,4.53
2022-09-13T23:49:17.362Z,2.85
2022-09-13T23:51:45.718Z,3.47
2022-09-13T23:54:15.241Z,3.55
2022-09-13T23:56:44.024Z,2.60
2022-09-13T23:59:13.615Z,5.53
